Time;durP1;ratioP1;P1;durP2;ratioP2;P2;SDS_P1;SDS_P2;PMS_P1;PMS_P2;Temp;Humidity;BMP_temperature;BMP_pressure;BME280_temperature;BME280_humidity;BME280_pressure;Samples;Min_cycle;Max_cycle;Signal;HPM_P1;HPM_P2
2022/06/21 00:01:58;;;;;;;10.43;2.22;;;14.30;80.10;;;;;;4996812;28;20442;-76
2022/06/21 00:04:24;;;;;;;5.47;1.85;;;14.20;80.20;;;;;;4996934;28;20022;-76
2022/06/21 00:13:48;;;;;;;5.32;1.55;;;14.20;80.40;;;;;;4996490;28;20052;-87
2022/06/21 00:16:15;;;;;;;6.65;2.10;;;14.10;80.50;;;;;;5013084;28;20034;-86
2022/06/21 00:18:42;;;;;;;6.40;2.38;;;14.10;80.40;;;;;;4981320;28;20077;-89
2022/06/21 00:21:23;;;;;;;7.45;2.47;;;14.10;80.50;;;;;;4997341;28;20019;-89
2022/06/21 00:23:51;;;;;;;6.35;2.40;;;14.10;80.70;;;;;;4997524;28;20035;-88
2022/06/21 00:26:19;;;;;;;11.32;2.53;;;14.10;80.70;;;;;;4997207;28;20093;-89
2022/06/21 00:28:45;;;;;;;4.60;1.98;;;14.00;80.70;;;;;;5003360;28;20034;-90
2022/06/21 00:31:17;;;;;;;9.48;2.55;;;14.00;80.80;;;;;;5006205;28;20033;-89
2022/06/21 00:33:43;;;;;;;5.63;2.13;;;14.00;81.00;;;;;;5014105;28;20165;-88
2022/06/21 00:36:21;;;;;;;8.43;2.60;;;13.90;81.00;;;;;;4998056;28;20072;-89
2022/06/21 00:38:47;;;;;;;7.45;1.95;;;13.90;81.30;;;;;;5002995;28;20014;-88
2022/06/21 00:41:16;;;;;;;5.07;2.13;;;13.90;81.40;;;;;;4995834;28;20026;-89
2022/06/21 00:43:46;;;;;;;6.25;2.15;;;13.80;81.50;;;;;;5009811;28;20502;-89
2022/06/21 00:46:44;;;;;;;10.85;2.28;;;13.80;81.50;;;;;;4996482;28;20018;-88
2022/06/21 00:49:27;;;;;;;6.90;2.20;;;13.70;81.70;;;;;;4985586;28;20034;-88
2022/06/21 00:52:13;;;;;;;4.95;1.90;;;13.80;81.80;;;;;;4996630;28;20026;-88
2022/06/21 00:55:17;;;;;;;6.47;2.40;;;13.70;81.80;;;;;;4996315;28;20022;-87
2022/06/21 00:57:50;;;;;;;6.65;2.00;;;13.70;82.00;;;;;;4989106;28;20036;-87
2022/06/21 01:00:37;;;;;;;5.18;2.20;;;13.60;82.20;;;;;;4996214;28;20022;-88
2022/06/21 01:03:16;;;;;;;8.10;2.38;;;13.60;82.30;;;;;;4997567;28;20022;-88
2022/06/21 01:05:45;;;;;;;5.70;2.08;;;13.60;82.40;;;;;;4996772;28;20022;-87
2022/06/21 01:08:17;;;;;;;6.53;2.10;;;13.60;82.40;;;;;;4997738;28;20360;-89
2022/06/21 01:10:46;;;;;;;5.90;1.98;;;13.50;82.50;;;;;;4996553;28;20022;-86
2022/06/21 01:13:16;;;;;;;7.80;2.28;;;13.50;82.50;;;;;;5003185;28;20030;-88
2022/06/21 01:15:45;;;;;;;5.70;2.13;;;13.50;82.60;;;;;;5015020;28;20020;-87
2022/06/21 01:18:14;;;;;;;6.20;1.88;;;13.50;82.70;;;;;;5014569;28;20020;-88
2022/06/21 01:20:44;;;;;;;9.60;2.03;;;13.50;82.90;;;;;;5015751;28;20489;-88
2022/06/21 01:23:51;;;;;;;6.80;2.08;;;13.40;83.00;;;;;;5013153;28;20049;-88
2022/06/21 01:26:26;;;;;;;9.32;2.97;;;13.40;83.20;;;;;;5015307;28;20045;-88
2022/06/21 01:28:52;;;;;;;7.03;1.95;;;13.40;83.20;;;;;;5014918;28;20026;-88
2022/06/21 01:31:18;;;;;;;9.57;2.03;;;13.40;83.40;;;;;;5015927;28;20050;-89
2022/06/21 01:33:44;;;;;;;5.85;1.80;;;13.40;83.50;;;;;;5016356;28;20034;-88
2022/06/21 01:36:15;;;;;;;5.28;1.98;;;13.40;83.70;;;;;;5014873;28;20024;-90
2022/06/21 01:38:51;;;;;;;9.30;2.17;;;13.40;83.90;;;;;;5015148;28;20105;-88
2022/06/21 01:41:23;;;;;;;11.25;2.30;;;13.30;84.00;;;;;;5015519;28;20026;-88
2022/06/21 01:43:52;;;;;;;10.32;2.38;;;13.30;84.10;;;;;;5016933;28;20029;-88
2022/06/21 01:46:23;;;;;;;7.43;2.55;;;13.30;84.30;;;;;;5016460;28;20022;-89
2022/06/21 01:48:51;;;;;;;4.95;2.10;;;13.30;84.40;;;;;;5016036;28;20105;-89
2022/06/21 01:51:28;;;;;;;6.60;2.30;;;13.20;84.50;;;;;;5016191;28;20018;-89
2022/06/21 01:53:57;;;;;;;6.40;2.05;;;13.30;84.70;;;;;;5016196;28;20052;-90
2022/06/21 01:56:28;;;;;;;6.10;2.20;;;13.20;84.90;;;;;;5000747;28;20021;-91
2022/06/21 01:59:08;;;;;;;6.68;2.60;;;13.20;85.10;;;;;;5016294;28;20025;-91
2022/06/21 02:01:49;;;;;;;5.75;2.13;;;13.10;85.30;;;;;;5016463;28;20028;-90
2022/06/21 02:04:20;;;;;;;8.20;1.92;;;13.10;85.40;;;;;;5016467;28;20014;-90
2022/06/21 02:06:46;;;;;;;5.15;1.67;;;13.10;85.50;;;;;;5020634;28;20109;-89
2022/06/21 02:09:30;;;;;;;7.00;2.40;;;13.10;85.60;;;;;;5016753;28;20030;-88
2022/06/21 02:12:02;;;;;;;6.25;2.38;;;13.00;85.80;;;;;;5011050;28;20029;-90
2022/06/21 02:14:33;;;;;;;5.43;2.40;;;13.00;85.90;;;;;;5003403;28;20500;-90
2022/06/21 02:17:17;;;;;;;7.05;2.70;;;13.00;86.00;;;;;;4989346;28;20026;-89
2022/06/21 02:19:47;;;;;;;6.80;2.57;;;12.90;86.20;;;;;;4996027;28;20093;-90
2022/06/21 02:22:24;;;;;;;9.73;2.30;;;12.90;86.50;;;;;;4996544;28;20262;-89
2022/06/21 02:24:51;;;;;;;6.43;2.47;;;12.90;86.90;;;;;;5011015;28;20025;-89
2022/06/21 02:27:20;;;;;;;8.32;2.88;;;12.90;87.30;;;;;;5011475;28;20080;-90
2022/06/21 02:29:50;;;;;;;7.47;2.40;;;12.80;87.70;;;;;;5010802;28;20034;-89
2022/06/21 02:32:27;;;;;;;5.78;2.72;;;12.80;88.00;;;;;;4994916;28;20022;-89
2022/06/21 02:35:03;;;;;;;6.78;2.45;;;12.80;88.30;;;;;;4995363;28;20018;-87
2022/06/21 02:37:29;;;;;;;5.25;2.03;;;12.80;88.60;;;;;;4994517;28;20425;-89
2022/06/21 02:39:57;;;;;;;7.38;2.70;;;12.70;88.50;;;;;;4995266;28;20018;-89
2022/06/21 02:42:29;;;;;;;5.82;2.53;;;12.70;88.70;;;;;;5010489;28;20025;-88
2022/06/21 02:45:00;;;;;;;6.80;2.28;;;12.70;89.00;;;;;;5011049;28;20050;-88
2022/06/21 02:47:39;;;;;;;6.00;2.92;;;12.60;89.10;;;;;;5009539;28;20022;-86
2022/06/21 02:50:40;;;;;;;7.63;3.45;;;12.60;89.20;;;;;;5011994;28;20030;-88
2022/06/21 02:53:21;;;;;;;6.47;2.65;;;12.50;89.30;;;;;;4995515;28;20137;-88
2022/06/21 02:55:55;;;;;;;5.90;2.67;;;12.50;89.20;;;;;;5013335;28;20025;-88
2022/06/21 02:58:32;;;;;;;7.65;2.80;;;12.40;89.40;;;;;;5013167;28;20031;-87
2022/06/21 03:01:04;;;;;;;9.40;3.20;;;12.40;89.60;;;;;;5013411;28;20014;-87
2022/06/21 03:03:32;;;;;;;8.68;2.45;;;12.40;89.60;;;;;;4996762;28;20022;-88
2022/06/21 03:06:00;;;;;;;5.07;2.40;;;12.40;89.70;;;;;;5016425;28;20090;-87
2022/06/21 03:08:29;;;;;;;7.45;2.40;;;12.30;89.80;;;;;;5012689;28;20171;-88
2022/06/21 03:10:56;;;;;;;10.57;2.95;;;12.40;90.00;;;;;;5006484;28;20030;-88
2022/06/21 03:13:29;;;;;;;6.28;2.40;;;12.30;90.00;;;;;;5009675;28;20053;-89
2022/06/21 03:16:03;;;;;;;6.50;2.50;;;12.40;90.10;;;;;;5015065;28;20022;-89
2022/06/21 03:18:40;;;;;;;8.82;3.10;;;12.40;90.10;;;;;;5016030;28;20022;-89
2022/06/21 03:21:06;;;;;;;5.28;2.17;;;12.40;90.10;;;;;;5016108;28;20026;-88
2022/06/21 03:23:33;;;;;;;4.88;2.25;;;12.40;90.10;;;;;;5014477;28;20036;-89
2022/06/21 03:26:04;;;;;;;6.80;2.05;;;12.40;90.20;;;;;;4997997;28;20497;-88
2022/06/21 03:28:39;;;;;;;7.05;2.40;;;12.40;90.30;;;;;;5012114;28;20022;-88
2022/06/21 03:31:13;;;;;;;8.77;2.38;;;12.40;90.60;;;;;;5010739;28;20023;-88
2022/06/21 03:33:42;;;;;;;7.68;2.40;;;12.40;90.50;;;;;;5002588;28;20475;-88
2022/06/21 03:36:13;;;;;;;7.15;2.33;;;12.40;90.50;;;;;;4995830;28;20454;-87
2022/06/21 03:38:43;;;;;;;6.05;2.17;;;12.30;90.50;;;;;;4994089;28;20018;-87
2022/06/21 03:44:02;;;;;;;6.88;2.50;;;12.30;90.70;;;;;;4995793;28;20041;-86
2022/06/21 03:46:37;;;;;;;6.32;2.17;;;12.40;90.80;;;;;;5003237;28;20019;-87
2022/06/21 03:49:28;;;;;;;7.63;2.10;;;12.30;90.80;;;;;;4994494;28;20053;-88
2022/06/21 03:51:55;;;;;;;4.93;1.80;;;12.40;90.90;;;;;;4993627;28;20019;-87
2022/06/21 03:54:41;;;;;;;7.38;3.33;;;12.40;90.90;;;;;;4994780;28;20034;-88
2022/06/21 03:57:20;;;;;;;9.95;2.03;;;12.40;91.00;;;;;;4995268;28;20022;-89
2022/06/21 04:00:00;;;;;;;8.00;2.65;;;12.40;91.10;;;;;;4995965;28;20041;-88
2022/06/21 04:02:33;;;;;;;5.68;2.35;;;12.40;91.20;;;;;;5004644;28;20068;-87
2022/06/21 04:05:05;;;;;;;4.30;2.45;;;12.40;91.20;;;;;;5017067;28;20105;-88
2022/06/21 04:07:39;;;;;;;6.90;2.65;;;12.40;91.30;;;;;;5021684;28;20025;-87
2022/06/21 04:10:16;;;;;;;7.70;2.00;;;12.50;91.40;;;;;;5018128;28;20021;-85
2022/06/21 04:12:48;;;;;;;6.72;2.42;;;12.40;91.50;;;;;;5013208;28;20042;-88
2022/06/21 04:15:20;;;;;;;6.55;2.38;;;12.50;91.50;;;;;;5000164;28;20062;-89
2022/06/21 04:18:18;;;;;;;5.15;2.08;;;12.50;91.60;;;;;;5005519;28;20033;-88
2022/06/21 04:20:50;;;;;;;8.00;2.42;;;12.60;91.70;;;;;;4952044;28;20037;-89
2022/06/21 04:23:23;;;;;;;6.05;2.38;;;12.60;91.70;;;;;;4997353;28;20489;-89
2022/06/21 04:26:07;;;;;;;4.17;2.33;;;12.60;91.70;;;;;;5001853;28;20113;-87
2022/06/21 04:28:39;;;;;;;8.73;2.55;;;12.60;91.80;;;;;;4997385;28;20088;-88
2022/06/21 04:31:27;;;;;;;6.85;2.42;;;12.70;91.80;;;;;;4998239;28;20030;-88
2022/06/21 04:33:57;;;;;;;5.10;2.20;;;12.70;91.80;;;;;;4996527;28;20045;-87
2022/06/21 04:36:29;;;;;;;10.82;2.58;;;12.80;91.90;;;;;;4997002;28;20026;-89
2022/06/21 04:39:01;;;;;;;6.68;2.85;;;12.80;91.90;;;;;;4996476;28;20081;-88
2022/06/21 04:42:02;;;;;;;9.07;3.13;;;12.80;91.90;;;;;;4996525;28;20033;-87
2022/06/21 04:44:30;;;;;;;5.70;2.33;;;12.80;92.00;;;;;;4996199;28;20034;-86
2022/06/21 04:47:11;;;;;;;6.57;2.65;;;12.90;91.90;;;;;;4997569;28;20026;-89
2022/06/21 04:49:53;;;;;;;9.38;2.38;;;12.90;92.00;;;;;;5000182;28;20430;-89
2022/06/21 04:52:22;;;;;;;7.90;2.40;;;13.00;92.00;;;;;;5024995;28;20112;-88
2022/06/21 04:54:48;;;;;;;6.97;2.75;;;13.00;92.00;;;;;;5014734;28;20026;-89
2022/06/21 04:57:17;;;;;;;6.50;2.50;;;13.00;92.00;;;;;;4998019;28;20080;-89
2022/06/21 04:59:46;;;;;;;7.60;2.53;;;13.10;92.10;;;;;;5011574;28;20030;-88
2022/06/21 05:02:21;;;;;;;9.95;2.83;;;13.10;92.10;;;;;;5003669;28;20045;-85
2022/06/21 05:04:56;;;;;;;7.85;2.33;;;13.10;92.10;;;;;;5004432;28;20398;-88
2022/06/21 05:07:26;;;;;;;9.95;2.78;;;13.20;92.10;;;;;;5015454;28;20014;-88
2022/06/21 05:09:54;;;;;;;9.57;2.88;;;13.20;92.20;;;;;;4998521;28;20018;-89
2022/06/21 05:12:35;;;;;;;9.43;3.00;;;13.20;92.20;;;;;;4995920;28;20348;-87
2022/06/21 05:15:07;;;;;;;5.18;1.80;;;13.30;92.20;;;;;;5013056;28;20088;-83
2022/06/21 05:17:38;;;;;;;8.95;2.22;;;13.30;92.30;;;;;;5010461;28;20041;-84
2022/06/21 05:20:11;;;;;;;6.50;2.45;;;13.40;92.50;;;;;;5010764;28;20080;-83
2022/06/21 05:22:40;;;;;;;9.57;2.17;;;13.40;92.50;;;;;;4994441;28;20126;-84
2022/06/21 05:25:33;;;;;;;5.78;1.75;;;13.50;92.50;;;;;;4993871;28;20460;-83
2022/06/21 05:28:45;;;;;;;8.35;2.00;;;13.50;92.50;;;;;;4994062;28;20026;-85
2022/06/21 05:31:28;;;;;;;6.97;1.77;;;13.60;92.50;;;;;;4985463;28;20082;-85
2022/06/21 05:34:00;;;;;;;7.22;1.58;;;13.70;92.50;;;;;;4994178;28;20034;-85
2022/06/21 05:36:47;;;;;;;7.38;1.38;;;13.70;92.40;;;;;;4994454;28;20022;-85
2022/06/21 05:39:20;;;;;;;6.03;1.52;;;13.70;92.40;;;;;;4995923;28;20545;-85
2022/06/21 05:41:48;;;;;;;10.15;1.77;;;13.80;92.40;;;;;;5000746;28;20038;-86
2022/06/21 05:44:19;;;;;;;4.28;1.02;;;13.90;92.40;;;;;;4997190;28;20111;-85
2022/06/21 05:46:53;;;;;;;5.50;1.55;;;13.90;92.30;;;;;;5012598;28;20028;-85
2022/06/21 05:49:21;;;;;;;7.28;1.50;;;14.00;92.20;;;;;;5001267;28;20081;-85
2022/06/21 05:51:47;;;;;;;5.75;1.05;;;14.00;92.20;;;;;;5007058;28;20423;-85
2022/06/21 05:54:17;;;;;;;7.05;1.08;;;14.00;92.10;;;;;;4985893;28;20088;-85
2022/06/21 05:56:44;;;;;;;7.03;1.52;;;14.10;92.00;;;;;;4996479;28;20068;-85
2022/06/21 05:59:15;;;;;;;3.30;0.80;;;14.20;92.00;;;;;;4978266;28;20470;-85
2022/06/21 06:01:50;;;;;;;7.28;1.13;;;14.20;91.90;;;;;;5006053;28;20022;-82
2022/06/21 06:04:38;;;;;;;7.13;1.08;;;14.20;91.90;;;;;;5014171;28;20068;-85
2022/06/21 06:07:05;;;;;;;7.97;1.20;;;14.30;91.80;;;;;;5000670;28;20437;-87
2022/06/21 06:09:38;;;;;;;4.18;1.10;;;14.30;91.80;;;;;;4988895;28;20463;-86
2022/06/21 06:12:17;;;;;;;5.20;0.98;;;14.30;91.80;;;;;;5013314;28;20018;-88
2022/06/21 06:14:48;;;;;;;5.25;1.10;;;14.40;91.80;;;;;;5013423;28;20042;-88
2022/06/21 06:17:43;;;;;;;9.52;1.77;;;14.40;91.70;;;;;;5014435;28;20141;-88
2022/06/21 06:20:39;;;;;;;4.90;0.82;;;14.40;91.70;;;;;;5023773;28;20010;-89
2022/06/21 06:23:14;;;;;;;8.07;1.25;;;14.50;91.70;;;;;;5012691;28;20018;-88
2022/06/21 06:25:53;;;;;;;5.97;0.98;;;14.60;91.70;;;;;;5014590;28;20104;-89
2022/06/21 06:28:44;;;;;;;7.63;1.55;;;14.60;91.60;;;;;;5013816;28;20052;-87
2022/06/21 06:31:15;;;;;;;11.18;0.90;;;14.70;91.50;;;;;;5010952;28;20535;-89
2022/06/21 06:33:45;;;;;;;4.57;0.95;;;14.80;91.50;;;;;;5013224;28;20030;-88
2022/06/21 06:36:17;;;;;;;2.03;0.60;;;14.80;91.40;;;;;;5014871;28;20072;-89
2022/06/21 06:38:43;;;;;;;5.93;1.10;;;14.90;91.40;;;;;;5013764;28;20293;-87
2022/06/21 06:41:55;;;;;;;6.10;0.98;;;15.00;91.20;;;;;;5013541;28;20030;-88
2022/06/21 06:44:21;;;;;;;6.00;1.05;;;15.00;91.10;;;;;;4935963;29;20083;-87
2022/06/21 06:46:50;;;;;;;3.45;0.77;;;15.10;91.00;;;;;;4985157;28;20041;-86
2022/06/21 06:49:19;;;;;;;7.60;1.13;;;15.10;90.90;;;;;;4993002;28;20022;-87
2022/06/21 06:52:20;;;;;;;6.80;1.10;;;15.20;90.80;;;;;;5004117;28;20042;-87
2022/06/21 06:54:49;;;;;;;5.43;0.70;;;15.30;90.70;;;;;;4995998;28;20042;-87
2022/06/21 06:57:21;;;;;;;5.88;1.10;;;15.40;90.60;;;;;;5009665;28;20038;-88
2022/06/21 06:59:47;;;;;;;3.75;0.80;;;15.40;90.50;;;;;;5009548;28;20045;-87
2022/06/21 07:02:24;;;;;;;6.22;1.00;;;15.50;90.40;;;;;;4995633;28;20026;-88
2022/06/21 07:05:06;;;;;;;5.28;1.00;;;15.60;90.30;;;;;;5011451;28;20022;-86
2022/06/21 07:07:53;;;;;;;3.03;0.93;;;15.70;90.20;;;;;;5001959;28;20069;-86
2022/06/21 07:10:22;;;;;;;5.63;1.40;;;15.70;90.10;;;;;;5012518;28;20030;-86
2022/06/21 07:12:50;;;;;;;5.20;1.02;;;15.80;90.00;;;;;;5013974;28;20036;-86
2022/06/21 07:15:17;;;;;;;5.72;1.15;;;15.90;90.10;;;;;;5009062;28;20042;-87
2022/06/21 07:17:51;;;;;;;6.35;1.30;;;15.90;89.40;;;;;;5012244;28;20547;-87
2022/06/21 07:20:27;;;;;;;5.70;1.27;;;15.90;89.00;;;;;;5012812;28;20381;-87
2022/06/21 07:22:55;;;;;;;3.85;1.13;;;16.00;88.90;;;;;;5011798;28;20030;-86
2022/06/21 07:25:38;;;;;;;3.15;1.08;;;16.10;88.60;;;;;;5013981;28;20029;-88
2022/06/21 07:28:29;;;;;;;3.80;0.90;;;16.10;88.20;;;;;;5013492;28;20026;-88
2022/06/21 07:30:58;;;;;;;3.88;0.70;;;16.20;87.90;;;;;;5012450;28;20371;-85
2022/06/21 07:33:32;;;;;;;4.10;1.13;;;16.20;87.40;;;;;;5012365;28;20478;-87
2022/06/21 07:36:08;;;;;;;6.57;0.82;;;16.30;87.00;;;;;;5017590;28;20068;-87
2022/06/21 07:38:47;;;;;;;4.18;1.20;;;16.30;86.40;;;;;;5017589;28;20346;-87
2022/06/21 07:41:26;;;;;;;3.22;1.10;;;16.40;86.00;;;;;;5017427;28;20029;-86
2022/06/21 07:43:56;;;;;;;3.50;0.60;;;16.40;85.50;;;;;;5016840;28;20110;-88
2022/06/21 07:46:31;;;;;;;3.50;0.73;;;16.50;85.20;;;;;;5016858;28;20117;-87
2022/06/21 07:49:02;;;;;;;2.47;0.70;;;16.50;84.70;;;;;;5018111;28;20030;-87
2022/06/21 07:51:34;;;;;;;5.72;1.00;;;16.60;84.60;;;;;;5016938;28;20362;-87
2022/06/21 07:54:03;;;;;;;3.60;0.70;;;16.60;84.30;;;;;;5017668;28;20025;-87
2022/06/21 07:56:35;;;;;;;8.27;0.80;;;16.70;84.10;;;;;;5016490;28;20054;-86
2022/06/21 07:59:16;;;;;;;3.33;0.65;;;16.70;83.60;;;;;;5015672;28;20025;-87
2022/06/21 08:07:31;;;;;;;5.38;0.70;;;16.80;82.40;;;;;;5017225;28;20037;-87
2022/06/21 08:10:18;;;;;;;3.90;0.60;;;16.80;82.10;;;;;;5016229;28;20026;-86
2022/06/21 08:12:44;;;;;;;2.35;0.40;;;16.90;81.90;;;;;;5016921;28;20032;-87
2022/06/21 08:15:10;;;;;;;5.43;0.75;;;17.00;81.90;;;;;;5016288;28;20058;-88
2022/06/21 08:18:16;;;;;;;4.68;0.90;;;17.00;81.80;;;;;;5015465;28;20076;-85
2022/06/21 08:20:48;;;;;;;3.47;0.57;;;17.00;81.40;;;;;;5011445;28;20068;-88
2022/06/21 08:23:25;;;;;;;4.07;0.73;;;17.10;81.30;;;;;;5015569;28;20042;-88
2022/06/21 08:26:03;;;;;;;2.40;0.52;;;17.20;81.30;;;;;;5015825;28;20108;-87
2022/06/21 08:28:45;;;;;;;3.90;0.52;;;17.20;81.10;;;;;;5016855;28;20021;-87
2022/06/21 08:31:24;;;;;;;3.33;0.60;;;17.30;80.90;;;;;;5015004;28;20046;-86
2022/06/21 08:33:57;;;;;;;3.58;0.47;;;17.40;80.50;;;;;;5016071;28;20535;-88
2022/06/21 08:36:31;;;;;;;3.63;0.50;;;17.50;80.30;;;;;;5015633;28;20049;-87
2022/06/21 08:39:09;;;;;;;2.50;0.40;;;17.50;80.10;;;;;;5015600;28;20401;-87
2022/06/21 08:41:55;;;;;;;2.38;0.50;;;17.60;79.70;;;;;;5016715;28;20022;-87
2022/06/21 08:44:39;;;;;;;3.00;0.50;;;17.70;79.50;;;;;;5015477;28;20013;-88
2022/06/21 08:47:46;;;;;;;3.53;0.52;;;17.80;79.00;;;;;;5014519;28;20026;-88
2022/06/21 08:50:11;;;;;;;2.83;0.47;;;17.90;78.70;;;;;;5015114;28;20041;-88
2022/06/21 08:52:58;;;;;;;1.20;0.45;;;17.90;78.50;;;;;;5015807;28;20354;-88
2022/06/21 08:56:05;;;;;;;2.67;0.40;;;17.90;78.00;;;;;;5017064;28;20095;-89
2022/06/21 08:58:47;;;;;;;1.90;0.43;;;18.00;77.30;;;;;;5007449;28;20132;-88
2022/06/21 09:01:34;;;;;;;6.13;0.70;;;18.10;77.10;;;;;;5016617;28;20079;-88
2022/06/21 09:04:17;;;;;;;4.85;0.50;;;18.20;76.70;;;;;;5018427;28;20018;-89
2022/06/21 09:06:55;;;;;;;2.15;0.60;;;18.20;76.30;;;;;;5016645;28;20042;-90
2022/06/21 09:09:42;;;;;;;2.42;0.40;;;18.40;76.10;;;;;;5016758;28;20038;-89
2022/06/21 09:12:32;;;;;;;2.05;0.65;;;18.40;75.40;;;;;;5015250;28;20033;-89
2022/06/21 09:15:17;;;;;;;4.70;0.50;;;18.50;75.10;;;;;;5016341;28;20104;-89
2022/06/21 09:17:57;;;;;;;5.13;0.60;;;18.60;74.80;;;;;;5015015;28;20052;-89
2022/06/21 09:20:32;;;;;;;4.07;0.60;;;18.70;74.70;;;;;;5014319;28;20029;-89
2022/06/21 09:23:07;;;;;;;3.40;0.47;;;18.80;74.50;;;;;;5015417;28;20458;-90
2022/06/21 09:25:54;;;;;;;2.88;0.40;;;18.90;74.10;;;;;;5015607;28;20017;-89
2022/06/21 09:28:25;;;;;;;2.58;0.50;;;19.00;73.70;;;;;;5016930;28;20042;-90
2022/06/21 09:31:13;;;;;;;2.92;0.73;;;19.10;73.70;;;;;;5017686;28;20026;-87
2022/06/21 09:33:56;;;;;;;3.63;0.40;;;19.20;72.80;;;;;;5015896;28;20386;-87
2022/06/21 09:36:21;;;;;;;2.33;0.40;;;19.30;73.00;;;;;;5015728;28;20034;-86
2022/06/21 09:39:09;;;;;;;1.55;0.28;;;19.40;71.80;;;;;;5015217;28;20029;-89
2022/06/21 09:41:52;;;;;;;1.48;0.40;;;19.50;71.20;;;;;;5014718;28;20022;-87
2022/06/21 09:44:40;;;;;;;3.28;0.40;;;19.70;70.70;;;;;;5015325;28;20109;-89
2022/06/21 09:47:31;;;;;;;2.30;0.50;;;19.80;70.00;;;;;;5015111;28;20105;-86
2022/06/21 09:50:12;;;;;;;2.85;0.50;;;19.90;69.10;;;;;;5016717;28;20037;-89
2022/06/21 09:53:05;;;;;;;2.28;0.38;;;20.00;68.50;;;;;;5017437;28;20025;-88
2022/06/21 09:55:51;;;;;;;2.00;0.40;;;20.20;67.20;;;;;;5015476;28;20029;-88
2022/06/21 09:58:43;;;;;;;3.53;0.30;;;20.20;66.70;;;;;;5017222;28;20075;-86
2022/06/21 10:01:33;;;;;;;2.67;0.30;;;20.30;66.50;;;;;;5017131;28;20022;-88
2022/06/21 10:04:05;;;;;;;2.58;0.45;;;20.50;65.90;;;;;;5017886;28;20018;-88
2022/06/21 10:06:44;;;;;;;4.68;0.47;;;20.60;65.70;;;;;;5019987;28;20029;-86
2022/06/21 10:09:09;;;;;;;2.42;0.32;;;20.70;65.20;;;;;;5022546;28;20093;-89
2022/06/21 10:11:49;;;;;;;2.70;0.38;;;20.80;64.80;;;;;;5016463;28;20091;-86
2022/06/21 10:14:30;;;;;;;2.35;0.40;;;20.90;64.60;;;;;;5016164;28;20191;-89
2022/06/21 10:17:29;;;;;;;4.18;0.52;;;21.00;64.00;;;;;;5006782;28;20116;-89
2022/06/21 10:20:18;;;;;;;1.08;0.38;;;21.10;63.50;;;;;;5015202;28;20025;-90
2022/06/21 10:23:11;;;;;;;3.78;0.50;;;21.20;63.20;;;;;;5015584;28;20026;-88
2022/06/21 10:26:11;;;;;;;3.47;0.45;;;21.40;62.80;;;;;;4998528;28;20026;-89
2022/06/21 10:29:18;;;;;;;3.63;0.70;;;21.40;62.30;;;;;;4996611;28;20026;-90
2022/06/21 10:31:52;;;;;;;4.07;0.50;;;21.60;62.00;;;;;;4994791;28;20042;-90
2022/06/21 10:34:53;;;;;;;3.50;0.63;;;21.70;62.00;;;;;;4994917;28;20030;-87
2022/06/21 10:37:36;;;;;;;3.65;0.70;;;21.80;61.20;;;;;;4982574;28;20386;-89
2022/06/21 10:40:34;;;;;;;3.80;0.60;;;21.90;61.40;;;;;;4996126;28;20037;-90
2022/06/21 10:43:31;;;;;;;2.92;0.50;;;22.00;61.20;;;;;;4995564;28;20113;-89
2022/06/21 10:46:08;;;;;;;2.55;0.40;;;22.10;60.90;;;;;;4995586;28;20092;-91
2022/06/21 10:49:14;;;;;;;3.28;0.45;;;22.30;60.60;;;;;;4998741;28;20030;-90
2022/06/21 10:52:14;;;;;;;3.60;0.43;;;22.50;59.70;;;;;;5003909;28;20018;-90
2022/06/21 10:54:42;;;;;;;2.42;0.30;;;22.70;58.70;;;;;;5004681;28;20060;-90
2022/06/21 10:57:27;;;;;;;2.38;0.40;;;22.90;58.30;;;;;;5003979;28;20423;-89
2022/06/21 11:02:54;;;;;;;1.25;0.20;;;23.30;56.70;;;;;;4995777;28;20049;-90
2022/06/21 11:05:51;;;;;;;2.90;0.50;;;23.50;56.60;;;;;;4995607;28;20466;-91
2022/06/21 11:08:20;;;;;;;2.45;0.30;;;23.60;55.40;;;;;;4993732;28;20026;-90
2022/06/21 11:10:54;;;;;;;1.73;0.30;;;23.80;55.20;;;;;;5011571;28;20059;-91
2022/06/21 11:13:25;;;;;;;1.90;0.30;;;23.90;54.70;;;;;;5018704;28;20049;-90
2022/06/21 11:16:36;;;;;;;1.35;0.30;;;24.00;54.60;;;;;;5015311;28;20037;-90
2022/06/21 11:19:45;;;;;;;1.15;0.20;;;24.20;54.10;;;;;;4960314;28;20043;-91
2022/06/21 11:22:31;;;;;;;1.63;0.43;;;24.30;54.30;;;;;;5015171;28;20100;-90
2022/06/21 11:25:12;;;;;;;1.65;0.30;;;24.30;54.50;;;;;;5014275;28;20022;-91
2022/06/21 11:27:49;;;;;;;2.05;0.30;;;24.50;54.10;;;;;;5005755;28;20026;-90
2022/06/21 11:30:48;;;;;;;1.23;0.20;;;24.60;53.90;;;;;;5014325;28;20014;-90
2022/06/21 11:33:28;;;;;;;1.75;0.20;;;24.70;53.00;;;;;;5003098;28;20152;-90
2022/06/21 11:36:32;;;;;;;1.67;0.25;;;24.80;52.70;;;;;;5010563;28;20029;-90
2022/06/21 11:39:06;;;;;;;0.80;0.10;;;24.90;52.40;;;;;;4973059;28;20081;-89
2022/06/21 11:42:04;;;;;;;;;;;25.00;52.40;;;;;;5005283;28;20106;-88
2022/06/21 11:45:01;;;;;;;2.50;0.20;;;25.20;52.20;;;;;;5013668;28;19905;-90
2022/06/21 11:47:54;;;;;;;2.40;0.30;;;25.50;52.10;;;;;;5003584;28;20104;-90
2022/06/21 11:50:23;;;;;;;2.72;0.30;;;25.90;51.80;;;;;;4999499;28;21029;-88
2022/06/21 11:53:16;;;;;;;2.03;0.30;;;26.10;51.30;;;;;;5008533;28;20134;-90
2022/06/21 11:56:23;;;;;;;1.83;0.30;;;26.40;50.20;;;;;;5019438;28;20473;-90
2022/06/21 11:59:06;;;;;;;2.47;0.40;;;26.50;50.10;;;;;;4996014;28;20034;-89
2022/06/21 12:02:11;;;;;;;1.67;0.32;;;26.50;50.20;;;;;;5016096;28;20033;-89
2022/06/21 12:05:01;;;;;;;1.75;0.40;;;26.60;50.20;;;;;;4968228;28;20027;-90
2022/06/21 12:07:57;;;;;;;2.03;0.22;;;26.70;49.60;;;;;;5002921;28;20093;-91
2022/06/21 12:11:12;;;;;;;1.80;0.30;;;26.70;49.20;;;;;;5006895;28;20041;-90
2022/06/21 12:13:54;;;;;;;0.93;0.30;;;26.70;48.20;;;;;;4958898;28;20055;-90
2022/06/21 12:16:44;;;;;;;2.45;0.30;;;26.70;48.20;;;;;;5020851;28;20034;-86
2022/06/21 12:19:30;;;;;;;1.55;0.20;;;26.80;48.20;;;;;;5016454;28;20460;-91
2022/06/21 12:22:05;;;;;;;1.55;0.30;;;26.80;48.00;;;;;;5016129;28;20389;-90
2022/06/21 12:24:30;;;;;;;4.05;0.32;;;26.70;48.00;;;;;;5018987;28;20037;-87
2022/06/21 12:26:56;;;;;;;1.60;0.30;;;26.60;47.90;;;;;;5017332;28;20021;-87
2022/06/21 12:29:23;;;;;;;2.38;0.30;;;26.60;47.80;;;;;;5000308;28;20030;-89
2022/06/21 12:31:56;;;;;;;3.03;0.40;;;26.50;47.70;;;;;;5017188;28;20033;-90
2022/06/21 12:34:24;;;;;;;4.00;0.30;;;26.50;47.40;;;;;;5016955;28;20030;-91
2022/06/21 12:36:59;;;;;;;0.63;0.20;;;26.40;47.20;;;;;;5018122;28;20018;-90
2022/06/21 12:39:39;;;;;;;2.72;0.32;;;26.40;47.00;;;;;;5015125;28;20030;-91
2022/06/21 12:42:22;;;;;;;3.35;0.25;;;26.40;47.00;;;;;;5014374;28;20046;-88
2022/06/21 12:45:10;;;;;;;1.00;0.20;;;26.40;46.70;;;;;;4998233;28;20025;-91
2022/06/21 12:48:14;;;;;;;2.90;0.30;;;26.50;46.70;;;;;;4995259;28;20026;-84
2022/06/21 12:51:18;;;;;;;2.40;0.38;;;26.60;46.70;;;;;;4996149;28;20100;-84
2022/06/21 12:54:13;;;;;;;1.08;0.30;;;26.90;46.70;;;;;;4975594;28;20046;-85
2022/06/21 12:56:54;;;;;;;2.22;0.30;;;27.20;46.00;;;;;;4994447;28;20045;-85
2022/06/21 12:59:29;;;;;;;1.35;0.28;;;27.40;45.30;;;;;;4995204;28;20112;-86
2022/06/21 13:02:31;;;;;;;1.38;0.22;;;27.60;45.00;;;;;;4995730;28;20079;-85
2022/06/21 13:05:26;;;;;;;0.85;0.20;;;27.60;44.40;;;;;;4996080;28;20117;-85
2022/06/21 13:08:10;;;;;;;1.00;0.20;;;27.80;44.30;;;;;;4994815;28;20014;-84
2022/06/21 13:10:51;;;;;;;2.55;0.30;;;27.80;44.10;;;;;;4994423;28;20359;-84
2022/06/21 13:13:59;;;;;;;0.70;0.17;;;27.80;43.90;;;;;;4994138;28;20033;-84
2022/06/21 13:16:51;;;;;;;1.17;0.20;;;27.70;43.20;;;;;;4994158;28;20030;-84
2022/06/21 13:19:37;;;;;;;1.48;0.20;;;27.70;43.70;;;;;;4999379;28;20028;-87
2022/06/21 13:22:23;;;;;;;1.83;0.20;;;27.60;44.00;;;;;;5008026;28;20098;-87
2022/06/21 13:25:23;;;;;;;1.30;0.22;;;27.60;43.90;;;;;;5011229;28;20063;-85
2022/06/21 13:28:09;;;;;;;1.73;0.40;;;27.50;43.70;;;;;;5014824;28;20025;-87
2022/06/21 13:30:58;;;;;;;1.35;0.30;;;27.50;43.90;;;;;;4981459;28;20033;-88
2022/06/21 13:34:05;;;;;;;2.17;0.32;;;27.50;43.70;;;;;;5011580;28;20520;-91
2022/06/21 13:36:44;;;;;;;1.33;0.22;;;27.40;43.60;;;;;;5014450;28;20462;-90
2022/06/21 13:39:25;;;;;;;1.58;0.28;;;27.40;43.80;;;;;;5014629;28;20068;-91
2022/06/21 13:44:52;;;;;;;1.60;0.30;;;27.30;43.60;;;;;;5014966;28;20076;-87
2022/06/21 13:47:59;;;;;;;1.35;0.30;;;27.40;43.80;;;;;;5012431;28;20040;-88
2022/06/21 13:50:47;;;;;;;0.80;0.20;;;27.40;43.30;;;;;;5013076;28;20022;-89
2022/06/21 13:53:33;;;;;;;2.70;0.22;;;27.50;43.40;;;;;;5012820;28;20373;-87
2022/06/21 13:56:07;;;;;;;0.90;0.20;;;27.60;43.20;;;;;;5014977;28;20089;-87
2022/06/21 13:58:38;;;;;;;1.15;0.20;;;27.60;42.90;;;;;;5011791;28;20476;-87
2022/06/21 14:01:17;;;;;;;0.77;0.20;;;27.60;42.80;;;;;;5014254;28;20026;-87
2022/06/21 14:04:02;;;;;;;1.48;0.20;;;27.60;42.90;;;;;;5013888;28;20500;-87
2022/06/21 14:06:36;;;;;;;1.88;0.30;;;27.60;42.90;;;;;;5012332;28;20504;-87
2022/06/21 14:09:04;;;;;;;1.08;0.22;;;27.60;43.00;;;;;;5012121;28;20010;-87
2022/06/21 14:11:43;;;;;;;2.10;0.20;;;27.60;43.10;;;;;;5011177;28;20022;-85